Terminal Aerodrome Forecast
Issued by NWS Birmingham, AL

Home | Current Version | Previous Version | Text Only | Print | Product List | Glossary On
Versions: 1 2 3 4 5 6 7 8 9 10 11 12 13 14 15 16 17 18 19
000
FTUS44 KBMX 252120 CCA
TAFBHM
TAF COR
KBHM 252120Z 2521/2618 22009G22KT 4SM TSRA BKN025 BKN050CB OVC100
     FM252300 24009KT P6SM SCT025 BKN250
     FM261300 28009KT P6SM BKN250=

USA.gov is the U.S. government's official web portal to all federal, state and local government web resources and services.